createdAt,value
2018-12-27T00:02:23.237Z,43.60
2018-12-27T00:04:52.742Z,41.50
2018-12-27T00:07:22.049Z,39.63
2018-12-27T00:09:51.561Z,39.93
2018-12-27T00:12:20.870Z,40.17
2018-12-27T00:14:50.228Z,43.00
2018-12-27T00:17:19.462Z,43.43
2018-12-27T00:19:48.688Z,42.83
2018-12-27T00:22:18.182Z,43.33
2018-12-27T00:24:47.748Z,38.10
2018-12-27T00:27:17.003Z,42.80
2018-12-27T00:29:46.458Z,39.73
2018-12-27T00:32:15.810Z,42.93
2018-12-27T00:34:45.274Z,36.67
2018-12-27T00:37:14.770Z,40.73
2018-12-27T00:39:44.586Z,39.27
2018-12-27T00:42:13.957Z,38.50
2018-12-27T00:44:43.289Z,38.03
2018-12-27T00:47:12.629Z,36.97
2018-12-27T00:49:42.029Z,39.10
2018-12-27T00:52:11.470Z,37.77
2018-12-27T00:54:40.833Z,35.50
2018-12-27T00:57:10.171Z,39.17
2018-12-27T00:59:39.577Z,42.10
2018-12-27T01:02:08.926Z,37.53
2018-12-27T01:04:38.734Z,38.03
2018-12-27T01:07:08.135Z,40.43
2018-12-27T01:09:37.475Z,45.83
2018-12-27T01:12:07.074Z,40.07
2018-12-27T01:14:36.718Z,40.77
2018-12-27T01:17:06.488Z,37.63
2018-12-27T01:19:36.121Z,38.27
2018-12-27T01:22:05.573Z,41.03
2018-12-27T01:24:34.971Z,40.83
2018-12-27T01:27:04.713Z,42.37
2018-12-27T01:29:34.442Z,39.63
2018-12-27T01:32:03.802Z,40.70
2018-12-27T01:34:33.469Z,40.80
2018-12-27T01:37:02.885Z,40.60
2018-12-27T01:39:32.202Z,43.97
2018-12-27T01:42:02.483Z,40.53
2018-12-27T01:44:31.948Z,39.67
2018-12-27T01:47:01.738Z,37.37
2018-12-27T01:49:31.078Z,38.27
2018-12-27T01:52:00.433Z,38.20
2018-12-27T01:54:29.845Z,38.33
2018-12-27T01:56:59.759Z,40.37
2018-12-27T01:59:29.089Z,39.33
2018-12-27T02:01:58.477Z,39.03
2018-12-27T02:04:28.055Z,38.17
2018-12-27T02:06:57.459Z,40.50
2018-12-27T02:09:26.785Z,38.87
2018-12-27T02:11:56.210Z,40.77
2018-12-27T02:14:25.915Z,38.23
2018-12-27T02:16:55.487Z,38.33
2018-12-27T02:19:25.012Z,38.00
2018-12-27T02:21:54.393Z,38.90
2018-12-27T02:24:24.122Z,38.17
2018-12-27T02:26:53.741Z,36.70
2018-12-27T02:29:22.917Z,44.67
2018-12-27T02:31:52.498Z,40.43
2018-12-27T02:34:21.963Z,39.00
2018-12-27T02:36:51.486Z,38.67
2018-12-27T02:39:20.745Z,40.43
2018-12-27T02:41:49.994Z,40.20
2018-12-27T02:44:19.401Z,40.23
2018-12-27T02:46:48.625Z,38.43
2018-12-27T02:49:18.046Z,39.60
2018-12-27T02:51:47.266Z,39.37
2018-12-27T02:54:16.662Z,37.73
2018-12-27T02:56:45.974Z,38.67
2018-12-27T02:59:15.789Z,34.53
2018-12-27T03:01:45.006Z,38.33
2018-12-27T03:04:14.641Z,42.60
2018-12-27T03:06:43.928Z,39.27
2018-12-27T03:09:13.153Z,44.60
2018-12-27T03:11:42.297Z,39.07
2018-12-27T03:14:11.560Z,40.13
2018-12-27T03:16:40.762Z,43.87
2018-12-27T03:19:09.925Z,43.53
2018-12-27T03:21:39.146Z,46.23
2018-12-27T03:24:08.451Z,41.57
2018-12-27T03:26:37.793Z,43.23
2018-12-27T03:29:07.150Z,44.50
2018-12-27T03:31:36.408Z,46.90
2018-12-27T03:34:05.795Z,49.70
2018-12-27T03:36:35.139Z,43.77
2018-12-27T03:39:05.597Z,49.17
2018-12-27T03:41:35.093Z,50.30
2018-12-27T03:44:04.342Z,42.00
2018-12-27T03:46:33.662Z,45.17
2018-12-27T03:49:03.330Z,43.20
2018-12-27T03:51:32.541Z,42.70
2018-12-27T03:54:01.726Z,41.37
2018-12-27T03:56:31.042Z,44.63
2018-12-27T03:59:00.205Z,42.77
2018-12-27T04:01:29.813Z,47.87
2018-12-27T04:04:01.554Z,43.87
2018-12-27T04:06:30.314Z,47.73
2018-12-27T04:08:59.680Z,50.03
2018-12-27T04:11:29.182Z,52.23
2018-12-27T04:13:58.862Z,47.30
2018-12-27T04:16:28.105Z,52.27
2018-12-27T04:18:57.241Z,51.63
2018-12-27T04:21:26.402Z,54.00
2018-12-27T04:23:56.451Z,50.13
2018-12-27T04:26:25.981Z,49.13
2018-12-27T04:28:55.705Z,54.43
2018-12-27T04:31:25.369Z,52.57
2018-12-27T04:33:54.988Z,52.70
2018-12-27T04:36:24.509Z,47.60
2018-12-27T04:38:54.334Z,49.00
2018-12-27T04:41:24.181Z,51.17
2018-12-27T04:43:53.806Z,51.77
2018-12-27T04:46:23.022Z,54.13
2018-12-27T04:48:52.174Z,50.23
2018-12-27T04:51:21.405Z,54.27
2018-12-27T04:53:50.671Z,47.57
2018-12-27T04:56:19.842Z,51.00
2018-12-27T04:58:49.122Z,50.67
2018-12-27T05:01:18.920Z,52.53
2018-12-27T05:03:48.079Z,50.90
2018-12-27T05:06:17.238Z,52.27
2018-12-27T05:08:46.937Z,52.20
2018-12-27T05:11:16.329Z,53.53
2018-12-27T05:13:45.586Z,60.23
2018-12-27T05:16:15.071Z,61.37
2018-12-27T05:18:44.262Z,60.07
2018-12-27T05:21:13.486Z,58.07
2018-12-27T05:23:42.746Z,60.43
2018-12-27T05:26:11.882Z,61.03
2018-12-27T05:28:41.042Z,56.83
2018-12-27T05:31:10.289Z,51.10
2018-12-27T05:33:39.775Z,53.20
2018-12-27T05:36:08.924Z,54.27
2018-12-27T05:38:38.218Z,47.43
2018-12-27T05:41:07.616Z,49.40
2018-12-27T05:43:37.159Z,50.90
2018-12-27T05:46:06.293Z,53.30
2018-12-27T05:48:35.467Z,50.83
2018-12-27T05:51:04.605Z,52.40
2018-12-27T05:53:34.023Z,53.77
2018-12-27T05:56:03.797Z,52.03
2018-12-27T05:58:33.041Z,49.43
2018-12-27T06:01:02.190Z,50.30
2018-12-27T06:03:31.359Z,52.60
2018-12-27T06:06:00.548Z,59.53
2018-12-27T06:08:29.803Z,67.37
2018-12-27T06:10:58.948Z,62.13
2018-12-27T06:13:28.115Z,62.23
2018-12-27T06:15:57.313Z,63.33
2018-12-27T06:18:26.499Z,60.53
2018-12-27T06:20:55.707Z,55.83
2018-12-27T06:23:24.927Z,61.57
2018-12-27T06:25:54.065Z,62.83
2018-12-27T06:28:23.226Z,61.30
2018-12-27T06:30:52.564Z,57.87
2018-12-27T06:33:21.865Z,62.50
2018-12-27T06:35:51.080Z,62.43
2018-12-27T06:38:20.578Z,66.27
2018-12-27T06:40:49.759Z,60.07
2018-12-27T06:43:18.929Z,70.53
2018-12-27T06:45:48.253Z,60.13
2018-12-27T06:48:17.939Z,69.70
2018-12-27T06:50:47.147Z,64.70
2018-12-27T06:53:16.573Z,66.70
2018-12-27T06:55:46.364Z,62.10
2018-12-27T06:58:15.637Z,65.70
2018-12-27T07:00:44.900Z,56.67
2018-12-27T07:03:14.137Z,57.93
2018-12-27T07:05:43.386Z,56.43
2018-12-27T07:08:12.831Z,55.83
2018-12-27T07:10:42.216Z,51.80
2018-12-27T07:13:11.457Z,56.00
2018-12-27T07:15:40.722Z,55.80
2018-12-27T07:18:10.169Z,53.13
2018-12-27T07:20:39.309Z,55.40
2018-12-27T07:23:08.772Z,56.93
2018-12-27T07:25:39.259Z,51.77
2018-12-27T07:28:08.433Z,56.47
2018-12-27T07:30:37.589Z,55.23
2018-12-27T07:33:06.779Z,48.37
2018-12-27T07:35:35.950Z,45.03
2018-12-27T07:38:05.103Z,50.50
2018-12-27T07:40:34.533Z,48.47
2018-12-27T07:43:03.715Z,46.93
2018-12-27T07:45:32.890Z,50.93
2018-12-27T07:48:02.131Z,51.70
2018-12-27T07:50:31.288Z,57.50
2018-12-27T07:53:00.431Z,64.83
2018-12-27T07:55:29.852Z,56.57
2018-12-27T07:57:59.026Z,57.00
2018-12-27T08:00:28.295Z,50.93
2018-12-27T08:02:57.452Z,52.57
2018-12-27T08:05:26.633Z,51.87
2018-12-27T08:07:56.142Z,55.37
2018-12-27T08:10:25.415Z,53.80
2018-12-27T08:12:55.200Z,58.70
2018-12-27T08:15:24.417Z,57.80
2018-12-27T08:17:53.565Z,51.37
2018-12-27T08:20:22.805Z,50.87
2018-12-27T08:22:51.934Z,52.60
2018-12-27T08:25:21.141Z,45.93
2018-12-27T08:27:50.326Z,50.57
2018-12-27T08:30:19.906Z,50.30
2018-12-27T08:32:49.141Z,51.57
2018-12-27T08:35:18.558Z,53.10
2018-12-27T08:37:47.804Z,47.70
2018-12-27T08:40:17.412Z,47.33
2018-12-27T08:42:46.608Z,45.37
2018-12-27T08:45:15.801Z,50.43
2018-12-27T08:47:44.978Z,40.47
2018-12-27T08:50:14.133Z,48.27
2018-12-27T08:52:43.985Z,44.93
2018-12-27T08:55:13.327Z,42.13
2018-12-27T08:57:42.511Z,42.00
2018-12-27T09:00:11.674Z,40.47
2018-12-27T09:02:41.207Z,48.77
2018-12-27T09:05:10.706Z,64.43
2018-12-27T09:07:39.867Z,68.87
2018-12-27T09:10:09.123Z,68.10
2018-12-27T09:12:38.646Z,62.50
2018-12-27T09:15:07.967Z,60.77
2018-12-27T09:17:37.214Z,66.37
2018-12-27T09:20:07.938Z,60.47
2018-12-27T09:22:37.253Z,58.87
2018-12-27T09:25:06.534Z,57.83
2018-12-27T09:27:35.782Z,69.67
2018-12-27T09:30:05.605Z,63.37
2018-12-27T09:32:35.200Z,62.40
2018-12-27T09:35:04.593Z,61.27
2018-12-27T09:37:33.792Z,62.50
2018-12-27T09:40:03.302Z,58.97
2018-12-27T09:42:32.502Z,65.37
2018-12-27T09:45:02.004Z,57.00
2018-12-27T09:47:31.242Z,62.33
2018-12-27T09:50:00.751Z,61.00
2018-12-27T09:52:30.148Z,55.10
2018-12-27T09:55:00.401Z,63.77
2018-12-27T09:57:29.584Z,64.97
2018-12-27T09:59:58.771Z,66.97
2018-12-27T10:02:27.982Z,58.70
2018-12-27T10:04:57.449Z,62.97
2018-12-27T10:07:26.665Z,54.33
2018-12-27T10:09:55.939Z,66.60
2018-12-27T10:12:25.265Z,86.23
2018-12-27T10:14:54.825Z,61.60
2018-12-27T10:17:23.993Z,78.63
2018-12-27T10:19:53.575Z,57.97
2018-12-27T10:22:22.829Z,59.23
2018-12-27T10:24:52.003Z,61.53
2018-12-27T10:27:21.762Z,65.63
2018-12-27T10:29:51.117Z,59.47
2018-12-27T10:32:20.360Z,57.67
2018-12-27T10:34:49.514Z,55.97
2018-12-27T10:37:18.662Z,56.23
2018-12-27T10:39:48.171Z,57.20
2018-12-27T10:42:17.294Z,61.53
2018-12-27T10:44:46.542Z,58.47
2018-12-27T10:47:15.965Z,61.30
2018-12-27T10:49:45.199Z,62.00
2018-12-27T10:52:14.798Z,62.37
2018-12-27T10:54:44.146Z,57.77
2018-12-27T10:57:13.350Z,53.97
2018-12-27T10:59:42.530Z,56.40
2018-12-27T11:02:12.031Z,47.40
2018-12-27T11:04:41.277Z,49.10
2018-12-27T11:07:10.455Z,48.53
2018-12-27T11:09:39.978Z,47.93
2018-12-27T11:12:09.150Z,45.57
2018-12-27T11:14:38.622Z,48.33
2018-12-27T11:17:07.787Z,44.37
2018-12-27T11:19:36.972Z,41.27
2018-12-27T11:22:06.379Z,46.83
2018-12-27T11:24:36.102Z,42.33
2018-12-27T11:27:05.780Z,39.30
2018-12-27T11:29:35.134Z,47.87
2018-12-27T11:32:04.558Z,39.10
2018-12-27T11:34:34.049Z,40.13
2018-12-27T11:37:03.252Z,42.30
2018-12-27T11:39:32.453Z,41.20
2018-12-27T11:42:02.223Z,39.43
2018-12-27T11:44:31.761Z,40.60
2018-12-27T11:47:00.937Z,41.67
2018-12-27T11:49:30.729Z,41.00
2018-12-27T11:51:59.902Z,41.97
2018-12-27T11:54:29.402Z,41.60
2018-12-27T11:56:58.683Z,37.17
2018-12-27T11:59:27.932Z,41.17
2018-12-27T12:01:57.119Z,34.20
2018-12-27T12:04:26.317Z,39.57
2018-12-27T12:06:55.462Z,41.53
2018-12-27T12:09:24.669Z,38.33
2018-12-27T12:11:53.850Z,36.83
2018-12-27T12:14:23.022Z,37.03
2018-12-27T12:16:52.263Z,38.87
2018-12-27T12:19:22.179Z,37.27
2018-12-27T12:21:51.462Z,39.17
2018-12-27T12:24:20.673Z,39.03
2018-12-27T12:26:50.391Z,42.90
2018-12-27T12:29:19.708Z,43.67
2018-12-27T12:31:49.550Z,36.10
2018-12-27T12:34:18.904Z,39.27
2018-12-27T12:36:48.615Z,42.07
2018-12-27T12:39:18.278Z,38.23
2018-12-27T12:41:47.553Z,37.00
2018-12-27T12:44:16.714Z,42.10
2018-12-27T12:46:46.305Z,42.10
2018-12-27T12:49:15.573Z,37.33
2018-12-27T12:51:45.151Z,38.33
2018-12-27T12:54:14.560Z,38.57
2018-12-27T12:56:44.250Z,38.77
2018-12-27T12:59:13.836Z,33.80
2018-12-27T13:01:43.053Z,36.10
2018-12-27T13:04:12.210Z,38.20
2018-12-27T13:06:41.426Z,31.50
2018-12-27T13:09:10.613Z,32.00
2018-12-27T13:11:39.777Z,37.13
2018-12-27T13:14:09.317Z,36.07
2018-12-27T13:16:38.888Z,34.30
2018-12-27T13:19:08.332Z,35.37
2018-12-27T13:21:37.497Z,35.87
2018-12-27T13:24:06.681Z,41.90
2018-12-27T13:26:35.860Z,35.97
2018-12-27T13:29:05.214Z,34.10
2018-12-27T13:31:34.462Z,34.83
2018-12-27T13:34:03.789Z,34.80
2018-12-27T13:36:33.006Z,34.53
2018-12-27T13:39:02.306Z,32.20
2018-12-27T13:41:31.438Z,34.63
2018-12-27T13:44:00.639Z,34.97
2018-12-27T13:46:29.778Z,37.63
2018-12-27T13:48:59.322Z,35.47
2018-12-27T13:51:28.550Z,39.67
2018-12-27T13:53:57.722Z,31.67
2018-12-27T13:56:26.874Z,33.87
2018-12-27T13:58:56.437Z,29.93
2018-12-27T14:01:25.621Z,35.37
2018-12-27T14:03:54.870Z,30.53
2018-12-27T14:06:24.323Z,33.77
2018-12-27T14:08:53.962Z,32.10
2018-12-27T14:11:23.245Z,33.23
2018-12-27T14:13:52.934Z,32.53
2018-12-27T14:16:22.173Z,32.37
2018-12-27T14:18:51.443Z,31.13
2018-12-27T14:21:20.672Z,31.53
2018-12-27T14:23:50.218Z,30.83
2018-12-27T14:26:19.456Z,30.07
2018-12-27T14:28:48.824Z,29.07
2018-12-27T14:31:18.059Z,31.50
2018-12-27T14:33:47.299Z,31.90
2018-12-27T14:36:16.729Z,38.10
2018-12-27T14:38:46.481Z,29.33
2018-12-27T14:41:15.734Z,31.00
2018-12-27T14:43:45.146Z,26.90
2018-12-27T14:46:14.414Z,31.60
2018-12-27T14:48:43.554Z,26.70
2018-12-27T14:51:12.835Z,27.70
2018-12-27T14:53:42.413Z,24.10
2018-12-27T14:56:11.687Z,24.13
2018-12-27T14:58:40.881Z,27.13
2018-12-27T15:01:10.030Z,27.90
2018-12-27T15:03:39.197Z,27.57
2018-12-27T15:06:08.383Z,29.03
2018-12-27T15:08:37.612Z,30.83
2018-12-27T15:11:07.336Z,30.53
2018-12-27T15:13:36.509Z,36.60
2018-12-27T15:16:05.947Z,30.37
2018-12-27T15:18:35.131Z,31.20
2018-12-27T15:21:04.374Z,32.37
2018-12-27T15:23:33.531Z,30.63
2018-12-27T15:26:02.775Z,24.90
2018-12-27T15:28:32.002Z,30.97
2018-12-27T15:31:01.219Z,31.40
2018-12-27T15:33:30.613Z,32.97
2018-12-27T15:35:59.958Z,35.47
2018-12-27T15:38:29.197Z,34.27
2018-12-27T15:40:58.463Z,35.17
2018-12-27T15:43:27.650Z,32.90
2018-12-27T15:45:57.134Z,31.73
2018-12-27T15:48:26.305Z,36.37
2018-12-27T15:50:55.795Z,33.00
2018-12-27T15:53:25.006Z,32.10
2018-12-27T15:55:54.186Z,32.20
2018-12-27T15:58:23.397Z,30.43
2018-12-27T16:00:52.725Z,31.67
2018-12-27T16:03:21.907Z,32.53
2018-12-27T16:05:51.378Z,31.93
2018-12-27T16:08:20.636Z,37.57
2018-12-27T16:10:49.862Z,31.23
2018-12-27T16:13:19.123Z,32.13
2018-12-27T16:15:48.558Z,33.47
2018-12-27T16:18:17.895Z,31.73
2018-12-27T16:20:47.057Z,31.83
2018-12-27T16:23:16.265Z,33.83
2018-12-27T16:25:45.767Z,32.10
2018-12-27T16:28:15.080Z,33.93
2018-12-27T16:30:44.343Z,35.43
2018-12-27T16:33:13.518Z,37.13
2018-12-27T16:35:42.699Z,42.50
2018-12-27T16:38:12.176Z,35.60
2018-12-27T16:40:41.381Z,34.50
2018-12-27T16:43:11.739Z,42.07
2018-12-27T16:45:40.978Z,47.47
2018-12-27T16:48:10.227Z,40.97
2018-12-27T16:50:39.653Z,35.33
2018-12-27T16:53:08.813Z,33.33
2018-12-27T16:55:38.377Z,36.87
2018-12-27T16:58:07.639Z,32.23
2018-12-27T17:00:37.205Z,33.70
2018-12-27T17:03:06.417Z,32.60
2018-12-27T17:05:35.583Z,36.23
2018-12-27T17:08:04.720Z,36.43
2018-12-27T17:10:33.898Z,37.90
2018-12-27T17:13:03.130Z,32.83
2018-12-27T17:15:32.392Z,37.97
2018-12-27T17:18:01.586Z,37.77
2018-12-27T17:20:31.274Z,36.87
2018-12-27T17:23:00.462Z,35.47
2018-12-27T17:25:30.346Z,36.33
2018-12-27T17:27:59.577Z,35.53
2018-12-27T17:30:28.811Z,33.03
2018-12-27T17:32:58.042Z,33.63
2018-12-27T17:35:27.518Z,35.43
2018-12-27T17:37:56.664Z,32.00
2018-12-27T17:40:26.174Z,37.27
2018-12-27T17:42:55.485Z,36.30
2018-12-27T17:45:24.745Z,35.90
2018-12-27T17:47:54.041Z,40.40
2018-12-27T17:50:23.220Z,40.27
2018-12-27T17:52:52.498Z,37.93
2018-12-27T17:55:21.662Z,36.33
2018-12-27T17:57:50.985Z,39.37
2018-12-27T18:00:20.261Z,38.30
2018-12-27T18:02:49.443Z,38.80
2018-12-27T18:05:18.666Z,40.93
2018-12-27T18:07:48.364Z,39.60
2018-12-27T18:10:17.589Z,40.73
2018-12-27T18:12:46.900Z,41.20
2018-12-27T18:15:16.115Z,38.73
2018-12-27T18:17:45.460Z,41.03
2018-12-27T18:20:15.212Z,41.60
2018-12-27T18:22:44.493Z,41.97
2018-12-27T18:25:13.805Z,41.53
2018-12-27T18:27:43.264Z,48.33
2018-12-27T18:30:12.532Z,45.30
2018-12-27T18:32:41.720Z,45.90
2018-12-27T18:35:11.170Z,47.37
2018-12-27T18:37:40.405Z,48.97
2018-12-27T18:40:09.716Z,46.17
2018-12-27T18:42:38.989Z,43.43
2018-12-27T18:45:08.796Z,42.97
2018-12-27T18:47:38.165Z,46.63
2018-12-27T18:50:07.560Z,47.57
2018-12-27T18:52:36.851Z,53.27
2018-12-27T18:55:06.140Z,53.80
2018-12-27T18:57:35.647Z,55.80
2018-12-27T19:00:05.829Z,57.93
2018-12-27T19:02:41.747Z,54.57
2018-12-27T19:05:06.719Z,61.73
2018-12-27T19:07:36.082Z,57.43
2018-12-27T19:10:06.179Z,52.00
2018-12-27T19:13:05.036Z,55.13
2018-12-27T19:16:00.827Z,61.13
2018-12-27T19:18:44.726Z,54.63
2018-12-27T19:21:20.062Z,58.20
2018-12-27T19:23:49.366Z,61.97
2018-12-27T19:26:18.844Z,51.63
2018-12-27T19:28:48.459Z,58.53
2018-12-27T19:31:17.751Z,56.93
2018-12-27T19:33:47.218Z,54.80
2018-12-27T19:36:16.496Z,46.73
2018-12-27T19:38:46.475Z,49.53
2018-12-27T19:41:15.761Z,48.30
2018-12-27T19:43:45.093Z,48.00
2018-12-27T19:46:14.364Z,49.93
2018-12-27T19:48:43.619Z,54.93
2018-12-27T19:51:13.628Z,49.63
2018-12-27T19:53:43.316Z,46.33
2018-12-27T19:56:12.647Z,42.30
2018-12-27T19:58:42.793Z,41.13
2018-12-27T20:01:12.138Z,44.80
2018-12-27T20:03:42.177Z,43.73
2018-12-27T20:06:14.641Z,43.80
2018-12-27T20:08:44.145Z,43.17
2018-12-27T20:11:13.429Z,49.20
2018-12-27T20:13:42.671Z,47.57
2018-12-27T20:16:12.397Z,46.77
2018-12-27T20:18:41.778Z,40.90
2018-12-27T20:21:11.257Z,42.63
2018-12-27T20:23:40.491Z,44.67
2018-12-27T20:26:09.730Z,43.70
2018-12-27T20:28:38.913Z,46.23
2018-12-27T20:31:08.307Z,44.03
2018-12-27T20:33:37.594Z,41.90
2018-12-27T20:36:07.026Z,41.53
2018-12-27T20:38:36.976Z,41.07
2018-12-27T20:41:07.554Z,38.60
2018-12-27T20:43:36.906Z,43.97
2018-12-27T20:46:06.358Z,41.87
2018-12-27T20:48:35.514Z,40.77
2018-12-27T20:51:04.684Z,40.53
2018-12-27T20:53:34.205Z,38.13
2018-12-27T20:56:03.605Z,39.87
2018-12-27T20:58:33.074Z,38.83
2018-12-27T21:01:02.616Z,36.57
2018-12-27T21:03:32.146Z,38.27
2018-12-27T21:06:01.728Z,36.40
2018-12-27T21:08:31.203Z,37.50
2018-12-27T21:11:00.542Z,39.03
2018-12-27T21:13:29.749Z,38.43
2018-12-27T21:15:59.463Z,40.23
2018-12-27T21:18:28.708Z,45.83
2018-12-27T21:20:57.927Z,48.40
2018-12-27T21:23:27.090Z,48.93
2018-12-27T21:25:56.220Z,42.27
2018-12-27T21:28:25.386Z,42.70
2018-12-27T21:30:55.209Z,48.07
2018-12-27T21:33:24.844Z,49.73
2018-12-27T21:35:54.246Z,43.43
2018-12-27T21:38:23.480Z,52.23
2018-12-27T21:40:52.642Z,46.83
2018-12-27T21:43:21.800Z,50.97
2018-12-27T21:45:51.535Z,42.53
2018-12-27T21:48:20.684Z,50.90
2018-12-27T21:50:49.849Z,51.23
2018-12-27T21:53:19.015Z,45.53
2018-12-27T21:55:48.576Z,49.33
2018-12-27T21:58:17.765Z,48.47
2018-12-27T22:00:47.053Z,44.87
2018-12-27T22:03:16.539Z,49.27
2018-12-27T22:05:45.918Z,57.83
2018-12-27T22:08:15.402Z,42.83
2018-12-27T22:10:44.648Z,36.93
2018-12-27T22:13:14.185Z,36.63
2018-12-27T22:15:43.546Z,30.73
2018-12-27T22:18:12.781Z,36.43
2018-12-27T22:20:41.985Z,31.90
2018-12-27T22:23:11.204Z,32.77
2018-12-27T22:25:40.380Z,34.10
2018-12-27T22:28:09.970Z,30.77
2018-12-27T22:30:39.166Z,35.23
2018-12-27T22:33:08.464Z,29.63
2018-12-27T22:35:37.654Z,32.37
2018-12-27T22:38:06.782Z,32.07
2018-12-27T22:40:36.099Z,31.30
2018-12-27T22:43:05.234Z,33.73
2018-12-27T22:45:34.670Z,34.33
2018-12-27T22:48:03.804Z,33.37
2018-12-27T22:50:32.988Z,31.23
2018-12-27T22:53:02.261Z,34.80
2018-12-27T22:55:31.848Z,32.77
2018-12-27T22:58:01.319Z,34.33
2018-12-27T23:00:40.256Z,34.23
2018-12-27T23:03:09.553Z,30.73
2018-12-27T23:05:39.114Z,35.27
2018-12-27T23:08:08.489Z,31.53
2018-12-27T23:10:37.790Z,34.10
2018-12-27T23:13:07.196Z,31.57
2018-12-27T23:15:36.879Z,31.03
2018-12-27T23:18:06.153Z,34.03
2018-12-27T23:20:35.442Z,34.17
2018-12-27T23:23:04.733Z,31.13
2018-12-27T23:25:34.053Z,33.47
2018-12-27T23:28:03.290Z,31.50
2018-12-27T23:30:32.521Z,30.70
2018-12-27T23:33:02.072Z,32.10
2018-12-27T23:35:31.633Z,32.97
2018-12-27T23:38:01.114Z,30.07
2018-12-27T23:40:30.502Z,32.93
2018-12-27T23:42:59.673Z,34.40
2018-12-27T23:45:28.824Z,39.23
2018-12-27T23:47:58.078Z,32.73
2018-12-27T23:50:27.502Z,39.97
2018-12-27T23:52:56.796Z,36.47
2018-12-27T23:55:26.142Z,34.37
2018-12-27T23:57:55.725Z,32.37
